Terminal Aerodrome Forecast
Issued by NWS Boston, MA

Home | Current Version | Previous Version | Text Only | Print | Product List | Glossary On
Versions: 1 2 3 4 5 6 7 8 9 10 11 12 13 14 15 16 17 18 19 20 21 22 23 24 25 26 27 28 29 30 31 32 33
000
FTUS41 KBOX 301120
TAFORH
TAF
KORH 301120Z 3012/3112 VRB03KT P6SM SKC
     FM310500 23007KT P6SM SCT150
     FM310900 24007KT 3SM BR SCT130
     FM311100 25007KT P6SM BKN200=

USA.gov is the U.S. government's official web portal to all federal, state and local government web resources and services.